sensor_id;sensor_type;location;lat;lon;timestamp;P1;durP1;ratioP1;P2;durP2;ratioP2
65998;SDS011;52766;56.008;37.440;2022-09-03T00:00:20;4.03;;;1.67;;
65998;SDS011;52766;56.008;37.440;2022-09-03T00:02:52;3.53;;;1.33;;
65998;SDS011;52766;56.008;37.440;2022-09-03T00:05:37;3.20;;;1.45;;
65998;SDS011;52766;56.008;37.440;2022-09-03T00:10:44;3.42;;;1.50;;
65998;SDS011;52766;56.008;37.440;2022-09-03T00:13:19;3.70;;;1.52;;
65998;SDS011;52766;56.008;37.440;2022-09-03T00:15:50;2.83;;;1.35;;
65998;SDS011;52766;56.008;37.440;2022-09-03T00:18:19;3.97;;;1.27;;
65998;SDS011;52766;56.008;37.440;2022-09-03T00:23:18;3.80;;;1.75;;
65998;SDS011;52766;56.008;37.440;2022-09-03T00:25:49;4.30;;;1.40;;
65998;SDS011;52766;56.008;37.440;2022-09-03T00:28:19;2.90;;;1.33;;
65998;SDS011;52766;56.008;37.440;2022-09-03T00:30:51;3.33;;;1.30;;
65998;SDS011;52766;56.008;37.440;2022-09-03T00:33:31;2.45;;;1.10;;
65998;SDS011;52766;56.008;37.440;2022-09-03T00:38:30;3.53;;;1.63;;
65998;SDS011;52766;56.008;37.440;2022-09-03T00:43:55;1.95;;;1.08;;
65998;SDS011;52766;56.008;37.440;2022-09-03T00:46:52;2.88;;;1.30;;
65998;SDS011;52766;56.008;37.440;2022-09-03T00:49:36;2.92;;;1.70;;
65998;SDS011;52766;56.008;37.440;2022-09-03T00:57:57;3.03;;;1.40;;
65998;SDS011;52766;56.008;37.440;2022-09-03T01:00:42;6.40;;;1.92;;
65998;SDS011;52766;56.008;37.440;2022-09-03T01:03:11;5.57;;;1.67;;
65998;SDS011;52766;56.008;37.440;2022-09-03T01:14:53;7.65;;;3.25;;
65998;SDS011;52766;56.008;37.440;2022-09-03T01:19:57;8.05;;;2.95;;
65998;SDS011;52766;56.008;37.440;2022-09-03T01:31:06;8.13;;;3.35;;
65998;SDS011;52766;56.008;37.440;2022-09-03T01:36:18;6.07;;;3.10;;
65998;SDS011;52766;56.008;37.440;2022-09-03T01:38:50;8.70;;;3.28;;
65998;SDS011;52766;56.008;37.440;2022-09-03T01:50:17;6.03;;;3.00;;
65998;SDS011;52766;56.008;37.440;2022-09-03T01:53:00;5.78;;;3.22;;
65998;SDS011;52766;56.008;37.440;2022-09-03T01:59:01;7.03;;;3.00;;
65998;SDS011;52766;56.008;37.440;2022-09-03T02:01:35;6.60;;;2.63;;
65998;SDS011;52766;56.008;37.440;2022-09-03T02:04:17;5.40;;;2.53;;
65998;SDS011;52766;56.008;37.440;2022-09-03T02:06:54;6.63;;;2.78;;
65998;SDS011;52766;56.008;37.440;2022-09-03T02:09:22;5.70;;;2.30;;
65998;SDS011;52766;56.008;37.440;2022-09-03T02:11:52;4.88;;;2.45;;
65998;SDS011;52766;56.008;37.440;2022-09-03T02:14:24;6.35;;;2.38;;
65998;SDS011;52766;56.008;37.440;2022-09-03T02:16:51;4.75;;;1.73;;
65998;SDS011;52766;56.008;37.440;2022-09-03T02:19:26;6.93;;;2.33;;
65998;SDS011;52766;56.008;37.440;2022-09-03T02:21:53;5.25;;;2.13;;
65998;SDS011;52766;56.008;37.440;2022-09-03T02:24:21;5.13;;;2.13;;
65998;SDS011;52766;56.008;37.440;2022-09-03T02:26:47;6.22;;;2.40;;
65998;SDS011;52766;56.008;37.440;2022-09-03T02:29:16;5.68;;;2.13;;
65998;SDS011;52766;56.008;37.440;2022-09-03T02:31:42;5.13;;;2.38;;
65998;SDS011;52766;56.008;37.440;2022-09-03T02:34:09;5.28;;;2.15;;
65998;SDS011;52766;56.008;37.440;2022-09-03T02:36:45;3.45;;;1.70;;
65998;SDS011;52766;56.008;37.440;2022-09-03T02:39:12;14.00;;;5.32;;
65998;SDS011;52766;56.008;37.440;2022-09-03T02:41:39;6.93;;;2.60;;
65998;SDS011;52766;56.008;37.440;2022-09-03T02:44:11;16.73;;;7.00;;
65998;SDS011;52766;56.008;37.440;2022-09-03T02:46:58;5.50;;;2.47;;
65998;SDS011;52766;56.008;37.440;2022-09-03T02:49:29;8.95;;;4.15;;
65998;SDS011;52766;56.008;37.440;2022-09-03T02:52:00;7.97;;;2.70;;
65998;SDS011;52766;56.008;37.440;2022-09-03T02:54:31;5.88;;;2.90;;
65998;SDS011;52766;56.008;37.440;2022-09-03T02:57:00;7.20;;;2.67;;
65998;SDS011;52766;56.008;37.440;2022-09-03T02:59:27;8.07;;;2.13;;
65998;SDS011;52766;56.008;37.440;2022-09-03T03:01:53;6.40;;;2.92;;
65998;SDS011;52766;56.008;37.440;2022-09-03T03:04:20;5.30;;;2.80;;
65998;SDS011;52766;56.008;37.440;2022-09-03T03:06:47;7.03;;;3.10;;
65998;SDS011;52766;56.008;37.440;2022-09-03T03:09:16;5.55;;;2.72;;
65998;SDS011;52766;56.008;37.440;2022-09-03T03:11:42;11.20;;;3.03;;
65998;SDS011;52766;56.008;37.440;2022-09-03T03:14:09;6.38;;;2.80;;
65998;SDS011;52766;56.008;37.440;2022-09-03T03:16:35;6.93;;;2.85;;
65998;SDS011;52766;56.008;37.440;2022-09-03T03:19:01;7.68;;;3.28;;
65998;SDS011;52766;56.008;37.440;2022-09-03T03:21:28;6.63;;;3.33;;
65998;SDS011;52766;56.008;37.440;2022-09-03T03:23:54;6.50;;;3.17;;
65998;SDS011;52766;56.008;37.440;2022-09-03T03:26:21;8.18;;;3.50;;
65998;SDS011;52766;56.008;37.440;2022-09-03T03:28:49;7.80;;;3.33;;
65998;SDS011;52766;56.008;37.440;2022-09-03T03:31:17;7.93;;;3.85;;
65998;SDS011;52766;56.008;37.440;2022-09-03T03:33:54;6.60;;;3.47;;
65998;SDS011;52766;56.008;37.440;2022-09-03T03:36:22;9.52;;;4.20;;
65998;SDS011;52766;56.008;37.440;2022-09-03T03:38:52;9.20;;;3.70;;
65998;SDS011;52766;56.008;37.440;2022-09-03T03:41:20;8.48;;;4.00;;
65998;SDS011;52766;56.008;37.440;2022-09-03T03:43:55;8.60;;;3.95;;
65998;SDS011;52766;56.008;37.440;2022-09-03T03:46:23;8.40;;;4.05;;
65998;SDS011;52766;56.008;37.440;2022-09-03T03:48:50;8.52;;;4.57;;
65998;SDS011;52766;56.008;37.440;2022-09-03T03:51:17;11.38;;;4.60;;
65998;SDS011;52766;56.008;37.440;2022-09-03T03:53:44;8.90;;;3.97;;
65998;SDS011;52766;56.008;37.440;2022-09-03T03:56:12;7.60;;;3.40;;
65998;SDS011;52766;56.008;37.440;2022-09-03T03:58:40;9.75;;;4.53;;
65998;SDS011;52766;56.008;37.440;2022-09-03T04:01:09;9.23;;;3.60;;
65998;SDS011;52766;56.008;37.440;2022-09-03T04:03:37;7.70;;;3.55;;
65998;SDS011;52766;56.008;37.440;2022-09-03T04:06:04;8.93;;;3.45;;
65998;SDS011;52766;56.008;37.440;2022-09-03T04:08:32;6.60;;;3.03;;
65998;SDS011;52766;56.008;37.440;2022-09-03T04:11:00;6.40;;;3.58;;
65998;SDS011;52766;56.008;37.440;2022-09-03T04:13:28;6.03;;;3.42;;
65998;SDS011;52766;56.008;37.440;2022-09-03T04:18:35;5.68;;;3.30;;
65998;SDS011;52766;56.008;37.440;2022-09-03T04:21:04;9.30;;;3.88;;
65998;SDS011;52766;56.008;37.440;2022-09-03T04:23:33;5.78;;;3.35;;
65998;SDS011;52766;56.008;37.440;2022-09-03T04:26:01;6.15;;;2.60;;
65998;SDS011;52766;56.008;37.440;2022-09-03T04:28:28;8.18;;;3.15;;
65998;SDS011;52766;56.008;37.440;2022-09-03T04:30:59;5.82;;;2.95;;
65998;SDS011;52766;56.008;37.440;2022-09-03T04:33:25;5.32;;;2.78;;
65998;SDS011;52766;56.008;37.440;2022-09-03T04:36:00;5.32;;;2.42;;
65998;SDS011;52766;56.008;37.440;2022-09-03T04:38:28;2.45;;;1.27;;
65998;SDS011;52766;56.008;37.440;2022-09-03T04:40:56;5.45;;;2.30;;
65998;SDS011;52766;56.008;37.440;2022-09-03T04:43:23;6.68;;;2.20;;
65998;SDS011;52766;56.008;37.440;2022-09-03T04:45:50;5.45;;;2.30;;
65998;SDS011;52766;56.008;37.440;2022-09-03T04:48:16;3.45;;;1.58;;
65998;SDS011;52766;56.008;37.440;2022-09-03T04:50:43;2.88;;;1.52;;
65998;SDS011;52766;56.008;37.440;2022-09-03T04:53:09;7.93;;;2.30;;
65998;SDS011;52766;56.008;37.440;2022-09-03T04:55:36;11.10;;;3.30;;
65998;SDS011;52766;56.008;37.440;2022-09-03T04:58:03;5.10;;;2.70;;
65998;SDS011;52766;56.008;37.440;2022-09-03T05:00:32;6.55;;;3.20;;
65998;SDS011;52766;56.008;37.440;2022-09-03T05:03:01;6.22;;;2.72;;
65998;SDS011;52766;56.008;37.440;2022-09-03T05:05:30;7.88;;;3.38;;
65998;SDS011;52766;56.008;37.440;2022-09-03T05:07:58;4.97;;;2.72;;
65998;SDS011;52766;56.008;37.440;2022-09-03T05:13:02;9.18;;;2.92;;
65998;SDS011;52766;56.008;37.440;2022-09-03T05:15:31;5.22;;;2.40;;
65998;SDS011;52766;56.008;37.440;2022-09-03T05:17:59;5.70;;;2.70;;
65998;SDS011;52766;56.008;37.440;2022-09-03T05:20:29;5.97;;;3.15;;
65998;SDS011;52766;56.008;37.440;2022-09-03T05:23:00;5.13;;;2.50;;
65998;SDS011;52766;56.008;37.440;2022-09-03T05:27:54;4.28;;;2.30;;
65998;SDS011;52766;56.008;37.440;2022-09-03T05:30:20;4.63;;;2.33;;
65998;SDS011;52766;56.008;37.440;2022-09-03T05:32:48;6.25;;;2.20;;
65998;SDS011;52766;56.008;37.440;2022-09-03T05:35:16;4.80;;;2.35;;
65998;SDS011;52766;56.008;37.440;2022-09-03T05:37:43;5.78;;;2.55;;
65998;SDS011;52766;56.008;37.440;2022-09-03T05:40:18;5.25;;;2.63;;
65998;SDS011;52766;56.008;37.440;2022-09-03T05:42:45;5.60;;;2.70;;
65998;SDS011;52766;56.008;37.440;2022-09-03T05:45:37;7.25;;;2.83;;
65998;SDS011;52766;56.008;37.440;2022-09-03T05:48:17;4.78;;;2.60;;
65998;SDS011;52766;56.008;37.440;2022-09-03T05:50:45;5.32;;;2.40;;
65998;SDS011;52766;56.008;37.440;2022-09-03T05:53:11;4.45;;;2.58;;
65998;SDS011;52766;56.008;37.440;2022-09-03T05:55:38;5.28;;;2.67;;
65998;SDS011;52766;56.008;37.440;2022-09-03T05:58:07;7.97;;;2.60;;
65998;SDS011;52766;56.008;37.440;2022-09-03T06:00:47;5.45;;;2.53;;
65998;SDS011;52766;56.008;37.440;2022-09-03T06:03:17;4.60;;;2.13;;
65998;SDS011;52766;56.008;37.440;2022-09-03T06:05:50;4.20;;;2.42;;
65998;SDS011;52766;56.008;37.440;2022-09-03T06:08:16;6.68;;;2.47;;
65998;SDS011;52766;56.008;37.440;2022-09-03T06:10:43;4.40;;;2.13;;
65998;SDS011;52766;56.008;37.440;2022-09-03T06:13:10;5.55;;;2.17;;
65998;SDS011;52766;56.008;37.440;2022-09-03T06:15:36;4.93;;;2.28;;
65998;SDS011;52766;56.008;37.440;2022-09-03T06:18:03;4.88;;;1.98;;
65998;SDS011;52766;56.008;37.440;2022-09-03T06:20:31;5.38;;;1.70;;
65998;SDS011;52766;56.008;37.440;2022-09-03T06:22:58;3.47;;;1.88;;
65998;SDS011;52766;56.008;37.440;2022-09-03T06:25:24;4.20;;;1.98;;
65998;SDS011;52766;56.008;37.440;2022-09-03T06:27:52;8.70;;;2.05;;
65998;SDS011;52766;56.008;37.440;2022-09-03T06:30:20;4.95;;;2.17;;
65998;SDS011;52766;56.008;37.440;2022-09-03T06:32:49;4.53;;;1.70;;
65998;SDS011;52766;56.008;37.440;2022-09-03T06:35:18;9.52;;;1.92;;
65998;SDS011;52766;56.008;37.440;2022-09-03T06:37:44;4.60;;;2.00;;
65998;SDS011;52766;56.008;37.440;2022-09-03T06:40:11;3.63;;;1.70;;
65998;SDS011;52766;56.008;37.440;2022-09-03T06:42:56;4.32;;;1.80;;
65998;SDS011;52766;56.008;37.440;2022-09-03T06:45:27;3.38;;;1.50;;
65998;SDS011;52766;56.008;37.440;2022-09-03T06:48:00;2.75;;;1.50;;
65998;SDS011;52766;56.008;37.440;2022-09-03T06:50:32;2.47;;;1.70;;
65998;SDS011;52766;56.008;37.440;2022-09-03T06:53:01;2.72;;;1.45;;
65998;SDS011;52766;56.008;37.440;2022-09-03T06:55:29;4.20;;;2.00;;
65998;SDS011;52766;56.008;37.440;2022-09-03T06:57:59;3.53;;;1.80;;
65998;SDS011;52766;56.008;37.440;2022-09-03T07:00:27;2.75;;;1.58;;
65998;SDS011;52766;56.008;37.440;2022-09-03T07:02:58;2.00;;;1.13;;
65998;SDS011;52766;56.008;37.440;2022-09-03T07:05:25;3.00;;;1.17;;
65998;SDS011;52766;56.008;37.440;2022-09-03T07:07:56;2.25;;;1.50;;
65998;SDS011;52766;56.008;37.440;2022-09-03T07:12:53;2.45;;;1.10;;
65998;SDS011;52766;56.008;37.440;2022-09-03T07:15:21;2.65;;;1.20;;
65998;SDS011;52766;56.008;37.440;2022-09-03T07:17:48;1.90;;;1.02;;
65998;SDS011;52766;56.008;37.440;2022-09-03T07:20:16;4.43;;;1.90;;
65998;SDS011;52766;56.008;37.440;2022-09-03T07:22:45;1.85;;;0.90;;
65998;SDS011;52766;56.008;37.440;2022-09-03T07:25:12;1.48;;;1.05;;
65998;SDS011;52766;56.008;37.440;2022-09-03T07:27:39;2.53;;;1.30;;
65998;SDS011;52766;56.008;37.440;2022-09-03T07:30:18;0.73;;;0.50;;
65998;SDS011;52766;56.008;37.440;2022-09-03T07:32:46;1.55;;;0.85;;
65998;SDS011;52766;56.008;37.440;2022-09-03T07:35:26;0.93;;;0.73;;
65998;SDS011;52766;56.008;37.440;2022-09-03T07:38:08;0.65;;;0.50;;
65998;SDS011;52766;56.008;37.440;2022-09-03T07:40:37;1.00;;;0.90;;
65998;SDS011;52766;56.008;37.440;2022-09-03T07:43:25;1.42;;;0.80;;
65998;SDS011;52766;56.008;37.440;2022-09-03T07:45:59;2.13;;;0.85;;
65998;SDS011;52766;56.008;37.440;2022-09-03T07:48:36;1.30;;;1.08;;
65998;SDS011;52766;56.008;37.440;2022-09-03T07:51:04;2.53;;;1.08;;
65998;SDS011;52766;56.008;37.440;2022-09-03T07:53:33;1.63;;;1.13;;
65998;SDS011;52766;56.008;37.440;2022-09-03T07:58:52;1.13;;;0.82;;
65998;SDS011;52766;56.008;37.440;2022-09-03T08:01:22;1.52;;;1.05;;
65998;SDS011;52766;56.008;37.440;2022-09-03T08:04:00;1.15;;;0.90;;
65998;SDS011;52766;56.008;37.440;2022-09-03T08:06:39;0.85;;;0.68;;
65998;SDS011;52766;56.008;37.440;2022-09-03T08:09:42;2.05;;;1.08;;
65998;SDS011;52766;56.008;37.440;2022-09-03T08:12:11;2.80;;;1.33;;
65998;SDS011;52766;56.008;37.440;2022-09-03T08:18:17;1.92;;;1.35;;
65998;SDS011;52766;56.008;37.440;2022-09-03T08:21:14;1.10;;;0.90;;
65998;SDS011;52766;56.008;37.440;2022-09-03T08:23:44;1.77;;;0.98;;
65998;SDS011;52766;56.008;37.440;2022-09-03T08:26:18;1.98;;;0.82;;
65998;SDS011;52766;56.008;37.440;2022-09-03T08:28:51;1.75;;;1.27;;
65998;SDS011;52766;56.008;37.440;2022-09-03T08:31:21;1.13;;;0.82;;
65998;SDS011;52766;56.008;37.440;2022-09-03T08:33:51;1.77;;;1.17;;
65998;SDS011;52766;56.008;37.440;2022-09-03T08:36:24;2.97;;;1.08;;
65998;SDS011;52766;56.008;37.440;2022-09-03T08:38:55;1.20;;;0.82;;
65998;SDS011;52766;56.008;37.440;2022-09-03T08:56:20;2.42;;;0.85;;
65998;SDS011;52766;56.008;37.440;2022-09-03T09:14:02;1.55;;;0.60;;
65998;SDS011;52766;56.008;37.440;2022-09-03T09:19:36;1.33;;;0.70;;
65998;SDS011;52766;56.008;37.440;2022-09-03T09:22:16;2.65;;;0.80;;
65998;SDS011;52766;56.008;37.440;2022-09-03T09:24:48;1.00;;;0.60;;
65998;SDS011;52766;56.008;37.440;2022-09-03T09:27:18;0.52;;;0.50;;
65998;SDS011;52766;56.008;37.440;2022-09-03T09:36:19;1.10;;;1.00;;
65998;SDS011;52766;56.008;37.440;2022-09-03T09:38:48;0.63;;;0.50;;
65998;SDS011;52766;56.008;37.440;2022-09-03T09:41:36;0.30;;;0.30;;
65998;SDS011;52766;56.008;37.440;2022-09-03T09:44:05;1.85;;;0.80;;
65998;SDS011;52766;56.008;37.440;2022-09-03T09:46:47;1.27;;;0.90;;
65998;SDS011;52766;56.008;37.440;2022-09-03T09:49:28;1.67;;;0.70;;
65998;SDS011;52766;56.008;37.440;2022-09-03T09:52:01;1.10;;;0.63;;
65998;SDS011;52766;56.008;37.440;2022-09-03T09:54:53;2.00;;;1.00;;
65998;SDS011;52766;56.008;37.440;2022-09-03T09:57:33;0.80;;;0.80;;
65998;SDS011;52766;56.008;37.440;2022-09-03T10:00:05;0.80;;;0.80;;
65998;SDS011;52766;56.008;37.440;2022-09-03T10:06:36;0.70;;;0.57;;
65998;SDS011;52766;56.008;37.440;2022-09-03T10:12:40;1.55;;;0.93;;
65998;SDS011;52766;56.008;37.440;2022-09-03T10:15:46;0.95;;;0.80;;
65998;SDS011;52766;56.008;37.440;2022-09-03T10:18:46;1.35;;;0.82;;
65998;SDS011;52766;56.008;37.440;2022-09-03T10:21:33;0.85;;;0.60;;
65998;SDS011;52766;56.008;37.440;2022-09-03T10:24:18;1.08;;;0.52;;
65998;SDS011;52766;56.008;37.440;2022-09-03T10:27:31;1.60;;;0.85;;
65998;SDS011;52766;56.008;37.440;2022-09-03T10:30:02;0.63;;;0.60;;
65998;SDS011;52766;56.008;37.440;2022-09-03T10:32:41;0.88;;;0.68;;
65998;SDS011;52766;56.008;37.440;2022-09-03T10:38:57;0.52;;;0.52;;
65998;SDS011;52766;56.008;37.440;2022-09-03T11:06:27;0.50;;;0.50;;
65998;SDS011;52766;56.008;37.440;2022-09-03T11:09:32;1.42;;;0.52;;
65998;SDS011;52766;56.008;37.440;2022-09-03T11:40:35;1.02;;;0.90;;
65998;SDS011;52766;56.008;37.440;2022-09-03T11:46:01;2.35;;;1.25;;
65998;SDS011;52766;56.008;37.440;2022-09-03T11:48:41;0.80;;;0.80;;
65998;SDS011;52766;56.008;37.440;2022-09-03T11:51:19;0.60;;;0.50;;
65998;SDS011;52766;56.008;37.440;2022-09-03T11:53:58;0.77;;;0.70;;
65998;SDS011;52766;56.008;37.440;2022-09-03T11:57:04;2.97;;;1.33;;
65998;SDS011;52766;56.008;37.440;2022-09-03T11:59:41;2.40;;;0.70;;
65998;SDS011;52766;56.008;37.440;2022-09-03T12:02:15;1.60;;;0.80;;
65998;SDS011;52766;56.008;37.440;2022-09-03T12:10:50;3.20;;;1.00;;
65998;SDS011;52766;56.008;37.440;2022-09-03T12:16:37;0.95;;;0.70;;
65998;SDS011;52766;56.008;37.440;2022-09-03T12:19:30;2.38;;;1.00;;
65998;SDS011;52766;56.008;37.440;2022-09-03T12:22:34;2.05;;;0.77;;
65998;SDS011;52766;56.008;37.440;2022-09-03T12:25:44;1.70;;;0.82;;
65998;SDS011;52766;56.008;37.440;2022-09-03T12:28:56;1.65;;;0.80;;
65998;SDS011;52766;56.008;37.440;2022-09-03T12:31:27;2.10;;;0.63;;
65998;SDS011;52766;56.008;37.440;2022-09-03T12:34:02;1.13;;;0.60;;
65998;SDS011;52766;56.008;37.440;2022-09-03T12:36:39;1.30;;;0.80;;
65998;SDS011;52766;56.008;37.440;2022-09-03T12:39:13;1.27;;;1.00;;
65998;SDS011;52766;56.008;37.440;2022-09-03T12:44:28;2.58;;;1.02;;
65998;SDS011;52766;56.008;37.440;2022-09-03T12:47:11;2.20;;;0.82;;
65998;SDS011;52766;56.008;37.440;2022-09-03T12:49:40;1.42;;;0.90;;
65998;SDS011;52766;56.008;37.440;2022-09-03T12:52:20;2.38;;;1.02;;
65998;SDS011;52766;56.008;37.440;2022-09-03T12:55:00;2.25;;;0.80;;
65998;SDS011;52766;56.008;37.440;2022-09-03T12:57:52;2.83;;;1.50;;
65998;SDS011;52766;56.008;37.440;2022-09-03T13:00:46;1.60;;;0.70;;
65998;SDS011;52766;56.008;37.440;2022-09-03T13:05:53;0.38;;;0.38;;
65998;SDS011;52766;56.008;37.440;2022-09-03T13:09:01;1.10;;;0.80;;
65998;SDS011;52766;56.008;37.440;2022-09-03T13:11:37;2.15;;;0.90;;
65998;SDS011;52766;56.008;37.440;2022-09-03T13:14:11;0.85;;;0.63;;
65998;SDS011;52766;56.008;37.440;2022-09-03T13:16:45;1.17;;;0.80;;
65998;SDS011;52766;56.008;37.440;2022-09-03T13:25:20;1.40;;;0.73;;
65998;SDS011;52766;56.008;37.440;2022-09-03T13:30:58;1.98;;;1.10;;
65998;SDS011;52766;56.008;37.440;2022-09-03T13:33:44;2.03;;;1.10;;
65998;SDS011;52766;56.008;37.440;2022-09-03T13:47:08;4.82;;;1.25;;
65998;SDS011;52766;56.008;37.440;2022-09-03T13:52:55;1.48;;;0.80;;
65998;SDS011;52766;56.008;37.440;2022-09-03T13:58:18;2.13;;;0.77;;
65998;SDS011;52766;56.008;37.440;2022-09-03T14:03:47;0.90;;;0.70;;
65998;SDS011;52766;56.008;37.440;2022-09-03T14:11:45;1.42;;;0.73;;
65998;SDS011;52766;56.008;37.440;2022-09-03T14:17:18;5.00;;;1.30;;
65998;SDS011;52766;56.008;37.440;2022-09-03T14:20:07;2.35;;;1.30;;
65998;SDS011;52766;56.008;37.440;2022-09-03T14:25:28;2.50;;;1.10;;
65998;SDS011;52766;56.008;37.440;2022-09-03T14:31:00;4.15;;;0.90;;
65998;SDS011;52766;56.008;37.440;2022-09-03T14:34:03;0.70;;;0.70;;
65998;SDS011;52766;56.008;37.440;2022-09-03T14:36:40;0.80;;;0.70;;
65998;SDS011;52766;56.008;37.440;2022-09-03T14:39:18;2.38;;;1.10;;
65998;SDS011;52766;56.008;37.440;2022-09-03T14:42:26;3.28;;;1.25;;
65998;SDS011;52766;56.008;37.440;2022-09-03T14:45:15;2.38;;;1.10;;
65998;SDS011;52766;56.008;37.440;2022-09-03T14:48:13;3.45;;;1.23;;
65998;SDS011;52766;56.008;37.440;2022-09-03T14:56:37;4.00;;;1.60;;
65998;SDS011;52766;56.008;37.440;2022-09-03T15:02:10;2.95;;;1.50;;
65998;SDS011;52766;56.008;37.440;2022-09-03T15:08:07;4.78;;;2.00;;
65998;SDS011;52766;56.008;37.440;2022-09-03T15:10:38;2.38;;;1.38;;
65998;SDS011;52766;56.008;37.440;2022-09-03T15:13:32;2.33;;;1.15;;
65998;SDS011;52766;56.008;37.440;2022-09-03T15:16:11;2.97;;;1.60;;
65998;SDS011;52766;56.008;37.440;2022-09-03T15:30:44;2.20;;;1.27;;
65998;SDS011;52766;56.008;37.440;2022-09-03T15:33:39;3.90;;;1.50;;
65998;SDS011;52766;56.008;37.440;2022-09-03T15:36:12;5.30;;;2.10;;
65998;SDS011;52766;56.008;37.440;2022-09-03T15:38:46;6.05;;;2.42;;
65998;SDS011;52766;56.008;37.440;2022-09-03T15:41:20;5.90;;;2.10;;
65998;SDS011;52766;56.008;37.440;2022-09-03T15:43:57;6.47;;;2.28;;
65998;SDS011;52766;56.008;37.440;2022-09-03T15:46:36;7.93;;;2.92;;
65998;SDS011;52766;56.008;37.440;2022-09-03T15:58:04;5.43;;;3.00;;
65998;SDS011;52766;56.008;37.440;2022-09-03T16:06:27;5.13;;;2.08;;
65998;SDS011;52766;56.008;37.440;2022-09-03T16:09:21;5.70;;;2.40;;
65998;SDS011;52766;56.008;37.440;2022-09-03T16:14:59;5.75;;;2.05;;
65998;SDS011;52766;56.008;37.440;2022-09-03T16:20:02;3.38;;;1.88;;
65998;SDS011;52766;56.008;37.440;2022-09-03T16:22:32;5.45;;;2.35;;
65998;SDS011;52766;56.008;37.440;2022-09-03T16:25:10;5.85;;;2.40;;
65998;SDS011;52766;56.008;37.440;2022-09-03T16:30:11;5.20;;;2.13;;
65998;SDS011;52766;56.008;37.440;2022-09-03T16:32:44;6.43;;;3.13;;
65998;SDS011;52766;56.008;37.440;2022-09-03T16:55:21;7.95;;;4.03;;
65998;SDS011;52766;56.008;37.440;2022-09-03T17:00:37;14.52;;;4.78;;
65998;SDS011;52766;56.008;37.440;2022-09-03T17:08:58;10.30;;;3.83;;
65998;SDS011;52766;56.008;37.440;2022-09-03T17:17:03;7.18;;;3.70;;
65998;SDS011;52766;56.008;37.440;2022-09-03T17:19:55;9.45;;;3.17;;
65998;SDS011;52766;56.008;37.440;2022-09-03T17:25:36;6.50;;;3.35;;
65998;SDS011;52766;56.008;37.440;2022-09-03T17:33:38;6.80;;;3.05;;
65998;SDS011;52766;56.008;37.440;2022-09-03T17:36:23;7.95;;;2.63;;
65998;SDS011;52766;56.008;37.440;2022-09-03T17:39:43;6.57;;;2.90;;
65998;SDS011;52766;56.008;37.440;2022-09-03T17:42:23;6.30;;;2.85;;
65998;SDS011;52766;56.008;37.440;2022-09-03T17:57:17;6.43;;;3.10;;
65998;SDS011;52766;56.008;37.440;2022-09-03T18:00:02;7.88;;;3.30;;
65998;SDS011;52766;56.008;37.440;2022-09-03T18:05:25;8.13;;;4.57;;
65998;SDS011;52766;56.008;37.440;2022-09-03T18:08:32;8.73;;;3.80;;
65998;SDS011;52766;56.008;37.440;2022-09-03T18:14:06;10.80;;;4.63;;
65998;SDS011;52766;56.008;37.440;2022-09-03T18:16:36;9.05;;;3.90;;
65998;SDS011;52766;56.008;37.440;2022-09-03T18:22:59;7.45;;;3.70;;
65998;SDS011;52766;56.008;37.440;2022-09-03T18:25:48;8.18;;;4.05;;
65998;SDS011;52766;56.008;37.440;2022-09-03T18:28:51;8.52;;;4.43;;
65998;SDS011;52766;56.008;37.440;2022-09-03T18:31:41;6.25;;;4.05;;
65998;SDS011;52766;56.008;37.440;2022-09-03T18:34:34;7.03;;;3.65;;
65998;SDS011;52766;56.008;37.440;2022-09-03T18:37:23;5.32;;;2.83;;
65998;SDS011;52766;56.008;37.440;2022-09-03T18:40:18;5.70;;;2.97;;
65998;SDS011;52766;56.008;37.440;2022-09-03T18:50:28;7.85;;;3.33;;
65998;SDS011;52766;56.008;37.440;2022-09-03T18:53:40;6.10;;;3.08;;
65998;SDS011;52766;56.008;37.440;2022-09-03T18:56:51;5.10;;;2.72;;
65998;SDS011;52766;56.008;37.440;2022-09-03T19:21:19;6.82;;;3.38;;
65998;SDS011;52766;56.008;37.440;2022-09-03T19:24:30;9.27;;;3.83;;
65998;SDS011;52766;56.008;37.440;2022-09-03T19:30:33;5.20;;;2.92;;
65998;SDS011;52766;56.008;37.440;2022-09-03T19:33:25;7.55;;;3.70;;
65998;SDS011;52766;56.008;37.440;2022-09-03T19:36:44;8.65;;;3.70;;
65998;SDS011;52766;56.008;37.440;2022-09-03T19:39:37;6.93;;;3.45;;
65998;SDS011;52766;56.008;37.440;2022-09-03T19:49:05;7.47;;;3.40;;
65998;SDS011;52766;56.008;37.440;2022-09-03T19:55:06;7.05;;;2.90;;
65998;SDS011;52766;56.008;37.440;2022-09-03T19:57:53;5.72;;;2.70;;
65998;SDS011;52766;56.008;37.440;2022-09-03T20:00:44;8.55;;;3.53;;
65998;SDS011;52766;56.008;37.440;2022-09-03T20:03:33;6.75;;;2.65;;
65998;SDS011;52766;56.008;37.440;2022-09-03T20:06:18;5.80;;;2.92;;
65998;SDS011;52766;56.008;37.440;2022-09-03T20:09:07;4.82;;;2.33;;
65998;SDS011;52766;56.008;37.440;2022-09-03T20:11:57;5.18;;;2.58;;
65998;SDS011;52766;56.008;37.440;2022-09-03T20:21:48;7.03;;;3.13;;
65998;SDS011;52766;56.008;37.440;2022-09-03T20:32:44;8.15;;;3.78;;
65998;SDS011;52766;56.008;37.440;2022-09-03T20:35:33;7.20;;;2.60;;
65998;SDS011;52766;56.008;37.440;2022-09-03T20:44:05;8.77;;;2.63;;
65998;SDS011;52766;56.008;37.440;2022-09-03T20:50:43;4.88;;;2.40;;
65998;SDS011;52766;56.008;37.440;2022-09-03T22:16:02;4.90;;;2.50;;
65998;SDS011;52766;56.008;37.440;2022-09-03T22:18:57;6.78;;;2.85;;
65998;SDS011;52766;56.008;37.440;2022-09-03T22:24:16;6.72;;;2.83;;
65998;SDS011;52766;56.008;37.440;2022-09-03T22:29:29;5.13;;;2.60;;
65998;SDS011;52766;56.008;37.440;2022-09-03T22:34:59;5.53;;;2.58;;
65998;SDS011;52766;56.008;37.440;2022-09-03T22:47:02;6.25;;;2.42;;
65998;SDS011;52766;56.008;37.440;2022-09-03T23:13:24;6.93;;;2.75;;
65998;SDS011;52766;56.008;37.440;2022-09-03T23:16:07;4.40;;;2.53;;
65998;SDS011;52766;56.008;37.440;2022-09-03T23:18:38;8.70;;;3.08;;
65998;SDS011;52766;56.008;37.440;2022-09-03T23:21:06;6.15;;;3.08;;
65998;SDS011;52766;56.008;37.440;2022-09-03T23:23:41;7.88;;;3.25;;
65998;SDS011;52766;56.008;37.440;2022-09-03T23:26:31;6.28;;;2.88;;
65998;SDS011;52766;56.008;37.440;2022-09-03T23:31:45;7.32;;;2.80;;
65998;SDS011;52766;56.008;37.440;2022-09-03T23:34:12;6.68;;;3.17;;
65998;SDS011;52766;56.008;37.440;2022-09-03T23:39:21;4.45;;;2.60;;
65998;SDS011;52766;56.008;37.440;2022-09-03T23:42:30;6.03;;;3.13;;
65998;SDS011;52766;56.008;37.440;2022-09-03T23:45:05;6.55;;;2.88;;
65998;SDS011;52766;56.008;37.440;2022-09-03T23:48:06;5.53;;;2.97;;
65998;SDS011;52766;56.008;37.440;2022-09-03T23:56:28;8.63;;;5.45;;
65998;SDS011;52766;56.008;37.440;2022-09-03T23:59:13;9.15;;;4.78;;
